sensor_id;sensor_type;location;lat;lon;timestamp;temperature;humidity
25208;DHT22;13153;52.316;21.166;2022-12-07T00:01:29;2.40;99.90
25208;DHT22;13153;52.316;21.166;2022-12-07T00:03:58;2.40;99.90
25208;DHT22;13153;52.316;21.166;2022-12-07T00:06:36;2.40;99.90
25208;DHT22;13153;52.316;21.166;2022-12-07T00:09:17;2.40;99.90
25208;DHT22;13153;52.316;21.166;2022-12-07T00:11:44;2.40;99.90
25208;DHT22;13153;52.316;21.166;2022-12-07T00:14:14;2.40;99.90
25208;DHT22;13153;52.316;21.166;2022-12-07T00:16:42;2.40;99.90
25208;DHT22;13153;52.316;21.166;2022-12-07T00:19:10;2.40;99.90
25208;DHT22;13153;52.316;21.166;2022-12-07T00:21:37;2.40;99.90
25208;DHT22;13153;52.316;21.166;2022-12-07T00:24:04;2.40;99.90
25208;DHT22;13153;52.316;21.166;2022-12-07T00:26:33;2.40;99.90
25208;DHT22;13153;52.316;21.166;2022-12-07T00:29:04;2.50;99.90
25208;DHT22;13153;52.316;21.166;2022-12-07T00:31:37;2.40;99.90
25208;DHT22;13153;52.316;21.166;2022-12-07T00:34:06;2.50;99.90
25208;DHT22;13153;52.316;21.166;2022-12-07T00:36:37;2.50;99.90
25208;DHT22;13153;52.316;21.166;2022-12-07T00:39:03;2.50;99.90
25208;DHT22;13153;52.316;21.166;2022-12-07T00:41:29;2.50;99.90
25208;DHT22;13153;52.316;21.166;2022-12-07T00:43:55;2.50;99.90
25208;DHT22;13153;52.316;21.166;2022-12-07T00:46:23;2.50;99.90
25208;DHT22;13153;52.316;21.166;2022-12-07T00:48:50;2.50;99.90
25208;DHT22;13153;52.316;21.166;2022-12-07T00:51:20;2.50;99.90
25208;DHT22;13153;52.316;21.166;2022-12-07T00:53:47;2.50;99.90
25208;DHT22;13153;52.316;21.166;2022-12-07T00:56:22;2.50;99.90
25208;DHT22;13153;52.316;21.166;2022-12-07T00:58:55;2.50;99.90
25208;DHT22;13153;52.316;21.166;2022-12-07T01:01:27;2.50;99.90
25208;DHT22;13153;52.316;21.166;2022-12-07T01:03:55;2.50;99.90
25208;DHT22;13153;52.316;21.166;2022-12-07T01:06:22;2.50;99.90
25208;DHT22;13153;52.316;21.166;2022-12-07T01:08:49;2.50;99.90
25208;DHT22;13153;52.316;21.166;2022-12-07T01:11:18;2.50;99.90
25208;DHT22;13153;52.316;21.166;2022-12-07T01:13:48;2.50;99.90
25208;DHT22;13153;52.316;21.166;2022-12-07T01:16:16;2.50;99.90
25208;DHT22;13153;52.316;21.166;2022-12-07T01:18:46;2.50;99.90
25208;DHT22;13153;52.316;21.166;2022-12-07T01:21:18;2.50;99.90
25208;DHT22;13153;52.316;21.166;2022-12-07T01:23:46;2.50;99.90
25208;DHT22;13153;52.316;21.166;2022-12-07T01:26:14;2.50;99.90
25208;DHT22;13153;52.316;21.166;2022-12-07T01:28:42;2.50;99.90
25208;DHT22;13153;52.316;21.166;2022-12-07T01:31:11;2.50;99.90
25208;DHT22;13153;52.316;21.166;2022-12-07T01:33:41;2.50;99.90
25208;DHT22;13153;52.316;21.166;2022-12-07T01:36:17;2.50;99.90
25208;DHT22;13153;52.316;21.166;2022-12-07T01:38:47;2.40;99.90
25208;DHT22;13153;52.316;21.166;2022-12-07T01:41:17;2.40;99.90
25208;DHT22;13153;52.316;21.166;2022-12-07T01:46:36;2.40;99.90
25208;DHT22;13153;52.316;21.166;2022-12-07T01:49:03;2.40;99.90
25208;DHT22;13153;52.316;21.166;2022-12-07T01:51:31;2.40;99.90
25208;DHT22;13153;52.316;21.166;2022-12-07T01:53:58;2.40;99.90
25208;DHT22;13153;52.316;21.166;2022-12-07T01:56:26;2.40;99.90
25208;DHT22;13153;52.316;21.166;2022-12-07T01:58:55;2.40;99.90
25208;DHT22;13153;52.316;21.166;2022-12-07T02:01:23;2.40;99.90
25208;DHT22;13153;52.316;21.166;2022-12-07T02:03:49;2.40;99.90
25208;DHT22;13153;52.316;21.166;2022-12-07T02:06:18;2.40;99.90
25208;DHT22;13153;52.316;21.166;2022-12-07T02:08:48;2.40;99.90
25208;DHT22;13153;52.316;21.166;2022-12-07T02:11:14;2.40;99.90
25208;DHT22;13153;52.316;21.166;2022-12-07T02:13:43;2.40;99.90
25208;DHT22;13153;52.316;21.166;2022-12-07T02:25:32;2.40;99.90
25208;DHT22;13153;52.316;21.166;2022-12-07T02:28:12;2.50;99.90
25208;DHT22;13153;52.316;21.166;2022-12-07T02:30:47;2.40;99.90
25208;DHT22;13153;52.316;21.166;2022-12-07T02:33:53;2.50;99.90
25208;DHT22;13153;52.316;21.166;2022-12-07T02:36:32;2.50;99.90
25208;DHT22;13153;52.316;21.166;2022-12-07T02:39:15;2.50;99.90
25208;DHT22;13153;52.316;21.166;2022-12-07T02:41:52;2.50;99.90
25208;DHT22;13153;52.316;21.166;2022-12-07T02:44:28;2.50;99.90
25208;DHT22;13153;52.316;21.166;2022-12-07T02:47:09;2.50;99.90
25208;DHT22;13153;52.316;21.166;2022-12-07T02:49:39;2.50;99.90
25208;DHT22;13153;52.316;21.166;2022-12-07T02:52:06;2.50;99.90
25208;DHT22;13153;52.316;21.166;2022-12-07T02:54:31;2.60;99.90
25208;DHT22;13153;52.316;21.166;2022-12-07T03:00:07;2.60;99.90
25208;DHT22;13153;52.316;21.166;2022-12-07T03:03:00;2.60;99.90
25208;DHT22;13153;52.316;21.166;2022-12-07T03:11:35;2.70;99.90
25208;DHT22;13153;52.316;21.166;2022-12-07T03:14:28;2.70;99.90
25208;DHT22;13153;52.316;21.166;2022-12-07T03:17:25;2.70;99.90
25208;DHT22;13153;52.316;21.166;2022-12-07T03:19:58;2.70;99.90
25208;DHT22;13153;52.316;21.166;2022-12-07T03:22:30;2.70;99.90
25208;DHT22;13153;52.316;21.166;2022-12-07T03:25:03;2.70;99.90
25208;DHT22;13153;52.316;21.166;2022-12-07T03:27:47;2.70;99.90
25208;DHT22;13153;52.316;21.166;2022-12-07T03:30:56;2.70;99.90
25208;DHT22;13153;52.316;21.166;2022-12-07T03:33:28;2.70;99.90
25208;DHT22;13153;52.316;21.166;2022-12-07T03:36:04;2.70;99.90
25208;DHT22;13153;52.316;21.166;2022-12-07T03:38:57;2.70;99.90
25208;DHT22;13153;52.316;21.166;2022-12-07T03:41:30;2.70;99.90
25208;DHT22;13153;52.316;21.166;2022-12-07T03:43:59;2.70;99.90
25208;DHT22;13153;52.316;21.166;2022-12-07T03:49:12;2.80;99.90
25208;DHT22;13153;52.316;21.166;2022-12-07T03:52:15;2.80;99.90
25208;DHT22;13153;52.316;21.166;2022-12-07T03:54:59;2.80;99.90
25208;DHT22;13153;52.316;21.166;2022-12-07T03:57:33;2.80;99.90
25208;DHT22;13153;52.316;21.166;2022-12-07T04:00:05;2.70;99.90
25208;DHT22;13153;52.316;21.166;2022-12-07T04:02:33;2.80;99.90
25208;DHT22;13153;52.316;21.166;2022-12-07T04:04:59;2.70;99.90
25208;DHT22;13153;52.316;21.166;2022-12-07T04:07:25;2.70;99.90
25208;DHT22;13153;52.316;21.166;2022-12-07T04:09:51;2.80;99.90
25208;DHT22;13153;52.316;21.166;2022-12-07T04:12:17;2.70;99.90
25208;DHT22;13153;52.316;21.166;2022-12-07T04:14:43;2.80;99.90
25208;DHT22;13153;52.316;21.166;2022-12-07T04:17:08;2.80;99.90
25208;DHT22;13153;52.316;21.166;2022-12-07T04:19:34;2.80;99.90
25208;DHT22;13153;52.316;21.166;2022-12-07T04:22:02;2.80;99.90
25208;DHT22;13153;52.316;21.166;2022-12-07T04:24:29;2.80;99.90
25208;DHT22;13153;52.316;21.166;2022-12-07T04:26:55;2.70;99.90
25208;DHT22;13153;52.316;21.166;2022-12-07T04:29:22;2.70;99.90
25208;DHT22;13153;52.316;21.166;2022-12-07T04:31:48;2.70;99.90
25208;DHT22;13153;52.316;21.166;2022-12-07T04:34:16;2.70;99.90
25208;DHT22;13153;52.316;21.166;2022-12-07T04:36:43;2.70;99.90
25208;DHT22;13153;52.316;21.166;2022-12-07T04:39:38;2.70;99.90
25208;DHT22;13153;52.316;21.166;2022-12-07T04:42:03;2.70;99.90
25208;DHT22;13153;52.316;21.166;2022-12-07T04:44:29;2.70;99.90
25208;DHT22;13153;52.316;21.166;2022-12-07T04:46:56;2.70;99.90
25208;DHT22;13153;52.316;21.166;2022-12-07T04:49:23;2.70;99.90
25208;DHT22;13153;52.316;21.166;2022-12-07T04:51:50;2.70;99.90
25208;DHT22;13153;52.316;21.166;2022-12-07T04:54:17;2.70;99.90
25208;DHT22;13153;52.316;21.166;2022-12-07T04:56:43;2.70;99.90
25208;DHT22;13153;52.316;21.166;2022-12-07T04:59:14;2.70;99.90
25208;DHT22;13153;52.316;21.166;2022-12-07T05:01:41;2.70;99.90
25208;DHT22;13153;52.316;21.166;2022-12-07T05:04:08;2.70;99.90
25208;DHT22;13153;52.316;21.166;2022-12-07T05:06:34;2.70;99.90
25208;DHT22;13153;52.316;21.166;2022-12-07T05:09:01;2.60;99.90
25208;DHT22;13153;52.316;21.166;2022-12-07T05:11:27;2.70;99.90
25208;DHT22;13153;52.316;21.166;2022-12-07T05:14:14;2.70;99.90
25208;DHT22;13153;52.316;21.166;2022-12-07T05:16:43;2.60;99.90
25208;DHT22;13153;52.316;21.166;2022-12-07T05:19:10;2.70;99.90
25208;DHT22;13153;52.316;21.166;2022-12-07T05:21:37;2.70;99.90
25208;DHT22;13153;52.316;21.166;2022-12-07T05:24:04;2.70;99.90
25208;DHT22;13153;52.316;21.166;2022-12-07T05:26:30;2.70;99.90
25208;DHT22;13153;52.316;21.166;2022-12-07T05:28:57;2.70;99.90
25208;DHT22;13153;52.316;21.166;2022-12-07T05:31:24;2.70;99.90
25208;DHT22;13153;52.316;21.166;2022-12-07T05:33:51;2.60;99.90
25208;DHT22;13153;52.316;21.166;2022-12-07T05:36:17;2.60;99.90
25208;DHT22;13153;52.316;21.166;2022-12-07T05:38:43;2.60;99.90
25208;DHT22;13153;52.316;21.166;2022-12-07T05:41:09;2.60;99.90
25208;DHT22;13153;52.316;21.166;2022-12-07T05:43:58;2.60;99.90
25208;DHT22;13153;52.316;21.166;2022-12-07T05:46:24;2.60;99.90
25208;DHT22;13153;52.316;21.166;2022-12-07T05:48:50;2.60;99.90
25208;DHT22;13153;52.316;21.166;2022-12-07T05:51:16;2.60;99.90
25208;DHT22;13153;52.316;21.166;2022-12-07T05:53:42;2.60;99.90
25208;DHT22;13153;52.316;21.166;2022-12-07T05:56:07;2.60;99.90
25208;DHT22;13153;52.316;21.166;2022-12-07T05:58:33;2.60;99.90
25208;DHT22;13153;52.316;21.166;2022-12-07T06:01:17;2.50;99.90
25208;DHT22;13153;52.316;21.166;2022-12-07T06:03:43;2.50;99.90
25208;DHT22;13153;52.316;21.166;2022-12-07T06:06:10;2.50;99.90
25208;DHT22;13153;52.316;21.166;2022-12-07T06:08:35;2.40;99.90
25208;DHT22;13153;52.316;21.166;2022-12-07T06:11:01;2.50;99.90
25208;DHT22;13153;52.316;21.166;2022-12-07T06:13:46;2.40;99.90
25208;DHT22;13153;52.316;21.166;2022-12-07T06:16:11;2.40;99.90
25208;DHT22;13153;52.316;21.166;2022-12-07T06:18:37;2.40;99.90
25208;DHT22;13153;52.316;21.166;2022-12-07T06:21:03;2.40;99.90
25208;DHT22;13153;52.316;21.166;2022-12-07T06:23:29;2.40;99.90
25208;DHT22;13153;52.316;21.166;2022-12-07T06:25:54;2.40;99.90
25208;DHT22;13153;52.316;21.166;2022-12-07T06:28:20;2.40;99.90
25208;DHT22;13153;52.316;21.166;2022-12-07T06:30:46;2.40;99.90
25208;DHT22;13153;52.316;21.166;2022-12-07T06:33:11;2.40;99.90
25208;DHT22;13153;52.316;21.166;2022-12-07T06:35:37;2.40;99.90
25208;DHT22;13153;52.316;21.166;2022-12-07T06:38:03;2.40;99.90
25208;DHT22;13153;52.316;21.166;2022-12-07T06:40:29;2.40;99.90
25208;DHT22;13153;52.316;21.166;2022-12-07T06:42:54;2.40;99.90
25208;DHT22;13153;52.316;21.166;2022-12-07T06:45:20;2.40;99.90
25208;DHT22;13153;52.316;21.166;2022-12-07T06:47:46;2.40;99.90
25208;DHT22;13153;52.316;21.166;2022-12-07T06:50:12;2.40;99.90
25208;DHT22;13153;52.316;21.166;2022-12-07T06:52:37;2.40;99.90
25208;DHT22;13153;52.316;21.166;2022-12-07T06:55:03;2.40;99.90
25208;DHT22;13153;52.316;21.166;2022-12-07T06:57:29;2.40;99.90
25208;DHT22;13153;52.316;21.166;2022-12-07T06:59:55;2.40;99.90
25208;DHT22;13153;52.316;21.166;2022-12-07T07:02:21;2.40;99.90
25208;DHT22;13153;52.316;21.166;2022-12-07T07:04:46;2.40;99.90
25208;DHT22;13153;52.316;21.166;2022-12-07T07:07:12;2.30;99.90
25208;DHT22;13153;52.316;21.166;2022-12-07T07:09:38;2.30;99.90
25208;DHT22;13153;52.316;21.166;2022-12-07T07:12:04;2.30;99.90
25208;DHT22;13153;52.316;21.166;2022-12-07T07:14:29;2.30;99.90
25208;DHT22;13153;52.316;21.166;2022-12-07T07:16:55;2.30;99.90
25208;DHT22;13153;52.316;21.166;2022-12-07T07:19:21;2.40;99.90
25208;DHT22;13153;52.316;21.166;2022-12-07T07:21:47;2.40;99.90
25208;DHT22;13153;52.316;21.166;2022-12-07T07:24:12;2.40;99.90
25208;DHT22;13153;52.316;21.166;2022-12-07T07:26:38;2.30;99.90
25208;DHT22;13153;52.316;21.166;2022-12-07T07:29:04;2.30;99.90
25208;DHT22;13153;52.316;21.166;2022-12-07T07:31:29;2.40;99.90
25208;DHT22;13153;52.316;21.166;2022-12-07T07:33:55;2.30;99.90
25208;DHT22;13153;52.316;21.166;2022-12-07T07:36:21;2.30;99.90
25208;DHT22;13153;52.316;21.166;2022-12-07T07:38:47;2.30;99.90
25208;DHT22;13153;52.316;21.166;2022-12-07T07:41:12;2.30;99.90
25208;DHT22;13153;52.316;21.166;2022-12-07T07:43:38;2.30;99.90
25208;DHT22;13153;52.316;21.166;2022-12-07T07:46:04;2.30;99.90
25208;DHT22;13153;52.316;21.166;2022-12-07T07:48:30;2.40;99.90
25208;DHT22;13153;52.316;21.166;2022-12-07T07:50:55;2.40;99.90
25208;DHT22;13153;52.316;21.166;2022-12-07T07:53:21;2.30;99.90
25208;DHT22;13153;52.316;21.166;2022-12-07T07:55:53;2.40;99.90
25208;DHT22;13153;52.316;21.166;2022-12-07T07:58:20;2.40;99.90
25208;DHT22;13153;52.316;21.166;2022-12-07T08:00:46;2.40;99.90
25208;DHT22;13153;52.316;21.166;2022-12-07T08:03:12;2.40;99.90
25208;DHT22;13153;52.316;21.166;2022-12-07T08:05:38;2.40;99.90
25208;DHT22;13153;52.316;21.166;2022-12-07T08:08:04;2.50;99.90
25208;DHT22;13153;52.316;21.166;2022-12-07T08:10:30;2.50;99.90
25208;DHT22;13153;52.316;21.166;2022-12-07T08:12:58;2.40;99.90
25208;DHT22;13153;52.316;21.166;2022-12-07T08:15:37;2.50;99.90
25208;DHT22;13153;52.316;21.166;2022-12-07T08:18:05;2.40;99.90
25208;DHT22;13153;52.316;21.166;2022-12-07T08:20:31;2.40;99.90
25208;DHT22;13153;52.316;21.166;2022-12-07T08:22:59;2.40;99.90
25208;DHT22;13153;52.316;21.166;2022-12-07T08:25:25;2.40;99.90
25208;DHT22;13153;52.316;21.166;2022-12-07T08:27:52;2.50;99.90
25208;DHT22;13153;52.316;21.166;2022-12-07T08:30:18;2.50;99.90
25208;DHT22;13153;52.316;21.166;2022-12-07T08:32:45;2.50;99.90
25208;DHT22;13153;52.316;21.166;2022-12-07T08:35:12;2.50;99.90
25208;DHT22;13153;52.316;21.166;2022-12-07T08:37:38;2.50;99.90
25208;DHT22;13153;52.316;21.166;2022-12-07T08:40:05;2.50;99.90
25208;DHT22;13153;52.316;21.166;2022-12-07T08:42:33;2.60;99.90
25208;DHT22;13153;52.316;21.166;2022-12-07T08:45:13;2.60;99.90
25208;DHT22;13153;52.316;21.166;2022-12-07T08:48:01;2.60;99.90
25208;DHT22;13153;52.316;21.166;2022-12-07T08:50:31;2.60;99.90
25208;DHT22;13153;52.316;21.166;2022-12-07T08:52:58;2.60;99.90
25208;DHT22;13153;52.316;21.166;2022-12-07T08:55:26;2.70;99.90
25208;DHT22;13153;52.316;21.166;2022-12-07T08:57:54;2.70;99.90
25208;DHT22;13153;52.316;21.166;2022-12-07T09:00:20;2.60;99.90
25208;DHT22;13153;52.316;21.166;2022-12-07T09:02:46;2.70;99.90
25208;DHT22;13153;52.316;21.166;2022-12-07T09:05:12;2.70;99.90
25208;DHT22;13153;52.316;21.166;2022-12-07T09:07:40;2.70;99.90
25208;DHT22;13153;52.316;21.166;2022-12-07T09:10:10;2.70;99.90
25208;DHT22;13153;52.316;21.166;2022-12-07T09:12:36;2.80;99.90
25208;DHT22;13153;52.316;21.166;2022-12-07T09:15:01;2.80;99.90
25208;DHT22;13153;52.316;21.166;2022-12-07T09:17:32;2.80;99.90
25208;DHT22;13153;52.316;21.166;2022-12-07T09:19:58;2.90;99.90
25208;DHT22;13153;52.316;21.166;2022-12-07T09:22:28;2.90;99.90
25208;DHT22;13153;52.316;21.166;2022-12-07T09:24:58;3.00;99.90
25208;DHT22;13153;52.316;21.166;2022-12-07T09:27:25;3.00;99.90
25208;DHT22;13153;52.316;21.166;2022-12-07T09:29:51;3.10;99.90
25208;DHT22;13153;52.316;21.166;2022-12-07T09:32:17;3.10;99.90
25208;DHT22;13153;52.316;21.166;2022-12-07T09:34:43;3.20;99.90
25208;DHT22;13153;52.316;21.166;2022-12-07T09:37:09;3.20;99.90
25208;DHT22;13153;52.316;21.166;2022-12-07T09:39:38;3.20;99.90
25208;DHT22;13153;52.316;21.166;2022-12-07T09:42:05;3.30;99.90
25208;DHT22;13153;52.316;21.166;2022-12-07T09:44:33;3.40;99.90
25208;DHT22;13153;52.316;21.166;2022-12-07T09:47:00;3.40;99.90
25208;DHT22;13153;52.316;21.166;2022-12-07T09:49:31;3.50;99.90
25208;DHT22;13153;52.316;21.166;2022-12-07T09:52:25;3.60;99.90
25208;DHT22;13153;52.316;21.166;2022-12-07T09:54:52;3.60;99.90
25208;DHT22;13153;52.316;21.166;2022-12-07T09:57:29;3.70;99.90
25208;DHT22;13153;52.316;21.166;2022-12-07T10:00:03;3.80;99.90
25208;DHT22;13153;52.316;21.166;2022-12-07T10:02:41;3.80;99.90
25208;DHT22;13153;52.316;21.166;2022-12-07T10:05:23;3.70;99.90
25208;DHT22;13153;52.316;21.166;2022-12-07T10:07:52;3.80;99.90
25208;DHT22;13153;52.316;21.166;2022-12-07T10:10:30;3.70;99.90
25208;DHT22;13153;52.316;21.166;2022-12-07T10:13:04;3.70;99.90
25208;DHT22;13153;52.316;21.166;2022-12-07T10:15:55;3.70;99.90
25208;DHT22;13153;52.316;21.166;2022-12-07T10:21:10;3.70;99.90
25208;DHT22;13153;52.316;21.166;2022-12-07T10:24:24;3.80;99.90
25208;DHT22;13153;52.316;21.166;2022-12-07T10:29:23;3.70;99.90
25208;DHT22;13153;52.316;21.166;2022-12-07T10:32:27;3.80;99.90
25208;DHT22;13153;52.316;21.166;2022-12-07T10:37:59;3.80;99.90
25208;DHT22;13153;52.316;21.166;2022-12-07T10:52:03;3.80;99.90
25208;DHT22;13153;52.316;21.166;2022-12-07T10:58:06;3.80;99.90
25208;DHT22;13153;52.316;21.166;2022-12-07T11:00:46;3.80;99.90
25208;DHT22;13153;52.316;21.166;2022-12-07T11:03:30;3.80;99.90
25208;DHT22;13153;52.316;21.166;2022-12-07T11:24:15;3.80;99.90
25208;DHT22;13153;52.316;21.166;2022-12-07T11:38:16;3.80;99.90
25208;DHT22;13153;52.316;21.166;2022-12-07T11:40:48;3.80;99.90
25208;DHT22;13153;52.316;21.166;2022-12-07T11:46:05;3.70;99.90
25208;DHT22;13153;52.316;21.166;2022-12-07T11:48:49;3.70;99.90
25208;DHT22;13153;52.316;21.166;2022-12-07T11:51:24;3.70;99.90
25208;DHT22;13153;52.316;21.166;2022-12-07T11:56:26;3.70;99.90
25208;DHT22;13153;52.316;21.166;2022-12-07T11:59:00;3.70;99.90
25208;DHT22;13153;52.316;21.166;2022-12-07T12:01:41;3.70;99.90
25208;DHT22;13153;52.316;21.166;2022-12-07T12:04:30;3.80;99.90
25208;DHT22;13153;52.316;21.166;2022-12-07T12:07:01;3.80;99.90
25208;DHT22;13153;52.316;21.166;2022-12-07T12:09:34;3.80;99.90
25208;DHT22;13153;52.316;21.166;2022-12-07T12:15:26;3.80;99.90
25208;DHT22;13153;52.316;21.166;2022-12-07T12:19:14;3.90;99.90
25208;DHT22;13153;52.316;21.166;2022-12-07T12:21:18;3.90;99.90
25208;DHT22;13153;52.316;21.166;2022-12-07T12:23:57;4.00;99.90
25208;DHT22;13153;52.316;21.166;2022-12-07T12:26:32;4.00;99.90
25208;DHT22;13153;52.316;21.166;2022-12-07T12:31:39;4.10;99.90
25208;DHT22;13153;52.316;21.166;2022-12-07T12:34:33;4.10;99.90
25208;DHT22;13153;52.316;21.166;2022-12-07T12:42:53;4.00;99.90
25208;DHT22;13153;52.316;21.166;2022-12-07T12:45:27;4.00;99.90
25208;DHT22;13153;52.316;21.166;2022-12-07T12:48:07;4.00;99.90
25208;DHT22;13153;52.316;21.166;2022-12-07T12:54:08;3.80;99.90
25208;DHT22;13153;52.316;21.166;2022-12-07T13:02:24;3.70;99.90
25208;DHT22;13153;52.316;21.166;2022-12-07T13:04:59;3.70;99.90
25208;DHT22;13153;52.316;21.166;2022-12-07T13:18:35;3.70;99.90
25208;DHT22;13153;52.316;21.166;2022-12-07T13:26:19;3.50;99.90
25208;DHT22;13153;52.316;21.166;2022-12-07T13:29:15;3.50;99.90
25208;DHT22;13153;52.316;21.166;2022-12-07T13:31:55;3.50;99.90
25208;DHT22;13153;52.316;21.166;2022-12-07T13:34:37;3.50;99.90
25208;DHT22;13153;52.316;21.166;2022-12-07T13:37:30;3.50;99.90
25208;DHT22;13153;52.316;21.166;2022-12-07T13:40:00;3.50;99.90
25208;DHT22;13153;52.316;21.166;2022-12-07T13:42:41;3.50;99.90
25208;DHT22;13153;52.316;21.166;2022-12-07T13:45:30;3.40;99.90
25208;DHT22;13153;52.316;21.166;2022-12-07T13:48:45;3.40;99.90
25208;DHT22;13153;52.316;21.166;2022-12-07T13:51:38;3.30;99.90
25208;DHT22;13153;52.316;21.166;2022-12-07T13:54:11;3.30;99.90
25208;DHT22;13153;52.316;21.166;2022-12-07T13:56:39;3.30;99.90
25208;DHT22;13153;52.316;21.166;2022-12-07T13:59:16;3.30;99.90
25208;DHT22;13153;52.316;21.166;2022-12-07T14:01:49;3.20;99.90
25208;DHT22;13153;52.316;21.166;2022-12-07T14:07:27;3.30;99.90
25208;DHT22;13153;52.316;21.166;2022-12-07T14:12:23;3.20;99.90
25208;DHT22;13153;52.316;21.166;2022-12-07T14:14:50;3.20;99.90
25208;DHT22;13153;52.316;21.166;2022-12-07T14:17:19;3.20;99.90
25208;DHT22;13153;52.316;21.166;2022-12-07T14:20:00;3.20;99.90
25208;DHT22;13153;52.316;21.166;2022-12-07T14:27:39;3.20;99.90
25208;DHT22;13153;52.316;21.166;2022-12-07T14:30:22;3.20;99.90
25208;DHT22;13153;52.316;21.166;2022-12-07T14:33:13;3.20;99.90
25208;DHT22;13153;52.316;21.166;2022-12-07T14:35:39;3.20;99.90
25208;DHT22;13153;52.316;21.166;2022-12-07T14:38:05;3.10;99.90
25208;DHT22;13153;52.316;21.166;2022-12-07T14:40:32;3.10;99.90
25208;DHT22;13153;52.316;21.166;2022-12-07T14:43:02;3.10;99.90
25208;DHT22;13153;52.316;21.166;2022-12-07T14:45:30;3.10;99.90
25208;DHT22;13153;52.316;21.166;2022-12-07T14:47:56;3.10;99.90
25208;DHT22;13153;52.316;21.166;2022-12-07T14:50:22;3.00;99.90
25208;DHT22;13153;52.316;21.166;2022-12-07T14:52:52;3.00;99.90
25208;DHT22;13153;52.316;21.166;2022-12-07T14:55:30;2.90;99.90
25208;DHT22;13153;52.316;21.166;2022-12-07T14:57:57;2.90;99.90
25208;DHT22;13153;52.316;21.166;2022-12-07T15:00:25;2.90;99.90
25208;DHT22;13153;52.316;21.166;2022-12-07T15:02:53;2.90;99.90
25208;DHT22;13153;52.316;21.166;2022-12-07T15:05:20;3.00;99.90
25208;DHT22;13153;52.316;21.166;2022-12-07T15:07:47;3.00;99.90
25208;DHT22;13153;52.316;21.166;2022-12-07T15:10:25;2.90;99.90
25208;DHT22;13153;52.316;21.166;2022-12-07T15:12:56;2.90;99.90
25208;DHT22;13153;52.316;21.166;2022-12-07T15:15:45;2.90;99.90
25208;DHT22;13153;52.316;21.166;2022-12-07T15:18:12;2.90;99.90
25208;DHT22;13153;52.316;21.166;2022-12-07T15:20:38;2.80;99.90
25208;DHT22;13153;52.316;21.166;2022-12-07T15:23:04;2.70;99.90
25208;DHT22;13153;52.316;21.166;2022-12-07T15:25:30;2.80;99.90
25208;DHT22;13153;52.316;21.166;2022-12-07T15:27:56;2.80;99.90
25208;DHT22;13153;52.316;21.166;2022-12-07T15:30:21;2.70;99.90
25208;DHT22;13153;52.316;21.166;2022-12-07T15:32:51;2.80;99.90
25208;DHT22;13153;52.316;21.166;2022-12-07T15:35:18;2.70;99.90
25208;DHT22;13153;52.316;21.166;2022-12-07T15:37:45;2.80;99.90
25208;DHT22;13153;52.316;21.166;2022-12-07T15:40:12;2.80;99.90
25208;DHT22;13153;52.316;21.166;2022-12-07T15:42:38;2.80;99.90
25208;DHT22;13153;52.316;21.166;2022-12-07T15:45:05;2.80;99.90
25208;DHT22;13153;52.316;21.166;2022-12-07T15:47:35;2.80;99.90
25208;DHT22;13153;52.316;21.166;2022-12-07T15:50:10;2.80;99.90
25208;DHT22;13153;52.316;21.166;2022-12-07T15:52:39;2.80;99.90
25208;DHT22;13153;52.316;21.166;2022-12-07T15:55:05;2.70;99.90
25208;DHT22;13153;52.316;21.166;2022-12-07T15:57:35;2.80;99.90
25208;DHT22;13153;52.316;21.166;2022-12-07T16:00:07;2.70;99.90
25208;DHT22;13153;52.316;21.166;2022-12-07T16:02:37;2.80;99.90
25208;DHT22;13153;52.316;21.166;2022-12-07T16:05:03;2.80;99.90
25208;DHT22;13153;52.316;21.166;2022-12-07T16:07:29;2.80;99.90
25208;DHT22;13153;52.316;21.166;2022-12-07T16:09:56;2.70;99.90
25208;DHT22;13153;52.316;21.166;2022-12-07T16:12:22;2.70;99.90
25208;DHT22;13153;52.316;21.166;2022-12-07T16:14:47;2.70;99.90
25208;DHT22;13153;52.316;21.166;2022-12-07T16:17:13;2.80;99.90
25208;DHT22;13153;52.316;21.166;2022-12-07T16:19:39;2.70;99.90
25208;DHT22;13153;52.316;21.166;2022-12-07T16:22:05;2.80;99.90
25208;DHT22;13153;52.316;21.166;2022-12-07T16:24:31;2.80;99.90
25208;DHT22;13153;52.316;21.166;2022-12-07T16:26:57;2.80;99.90
25208;DHT22;13153;52.316;21.166;2022-12-07T16:29:23;2.80;99.90
25208;DHT22;13153;52.316;21.166;2022-12-07T16:31:51;2.80;99.90
25208;DHT22;13153;52.316;21.166;2022-12-07T16:34:17;2.80;99.90
25208;DHT22;13153;52.316;21.166;2022-12-07T16:36:43;2.80;99.90
25208;DHT22;13153;52.316;21.166;2022-12-07T16:39:09;2.80;99.90
25208;DHT22;13153;52.316;21.166;2022-12-07T16:41:35;2.80;99.90
25208;DHT22;13153;52.316;21.166;2022-12-07T16:44:06;2.90;99.90
25208;DHT22;13153;52.316;21.166;2022-12-07T16:46:35;2.80;99.90
25208;DHT22;13153;52.316;21.166;2022-12-07T16:49:02;2.80;99.90
25208;DHT22;13153;52.316;21.166;2022-12-07T16:51:29;2.80;99.90
25208;DHT22;13153;52.316;21.166;2022-12-07T16:53:55;2.90;99.90
25208;DHT22;13153;52.316;21.166;2022-12-07T16:56:21;2.90;99.90
25208;DHT22;13153;52.316;21.166;2022-12-07T16:58:47;2.80;99.90
25208;DHT22;13153;52.316;21.166;2022-12-07T17:01:16;2.80;99.90
25208;DHT22;13153;52.316;21.166;2022-12-07T17:03:44;2.90;99.90
25208;DHT22;13153;52.316;21.166;2022-12-07T17:06:16;2.90;99.90
25208;DHT22;13153;52.316;21.166;2022-12-07T17:08:43;2.80;99.90
25208;DHT22;13153;52.316;21.166;2022-12-07T17:11:18;2.90;99.90
25208;DHT22;13153;52.316;21.166;2022-12-07T17:13:45;2.90;99.90
25208;DHT22;13153;52.316;21.166;2022-12-07T17:16:30;2.90;99.90
25208;DHT22;13153;52.316;21.166;2022-12-07T17:18:56;2.90;99.90
25208;DHT22;13153;52.316;21.166;2022-12-07T17:21:23;2.90;99.90
25208;DHT22;13153;52.316;21.166;2022-12-07T17:23:49;2.90;99.90
25208;DHT22;13153;52.316;21.166;2022-12-07T17:26:22;2.90;99.90
25208;DHT22;13153;52.316;21.166;2022-12-07T17:28:49;2.90;99.90
25208;DHT22;13153;52.316;21.166;2022-12-07T17:31:17;2.90;99.90
25208;DHT22;13153;52.316;21.166;2022-12-07T17:33:45;2.90;99.90
25208;DHT22;13153;52.316;21.166;2022-12-07T17:36:13;2.90;99.90
25208;DHT22;13153;52.316;21.166;2022-12-07T17:38:47;2.90;99.90
25208;DHT22;13153;52.316;21.166;2022-12-07T17:41:18;2.90;99.90
25208;DHT22;13153;52.316;21.166;2022-12-07T17:44:07;2.90;99.90
25208;DHT22;13153;52.316;21.166;2022-12-07T17:46:35;3.00;99.90
25208;DHT22;13153;52.316;21.166;2022-12-07T17:49:02;2.90;99.90
25208;DHT22;13153;52.316;21.166;2022-12-07T17:51:28;2.90;99.90
25208;DHT22;13153;52.316;21.166;2022-12-07T17:54:13;3.00;99.90
25208;DHT22;13153;52.316;21.166;2022-12-07T17:56:39;2.90;99.90
25208;DHT22;13153;52.316;21.166;2022-12-07T17:59:05;2.90;99.90
25208;DHT22;13153;52.316;21.166;2022-12-07T18:01:32;2.90;99.90
25208;DHT22;13153;52.316;21.166;2022-12-07T18:03:58;2.90;99.90